sensor_id;sensor_type;location;lat;lon;timestamp;temperature;humidity
45233;DHT22;30969;51.052;17.056;2023-02-02T00:03:22;5.10;85.50
45233;DHT22;30969;51.052;17.056;2023-02-02T00:08:26;5.10;85.40
45233;DHT22;30969;51.052;17.056;2023-02-02T00:13:31;5.10;85.20
45233;DHT22;30969;51.052;17.056;2023-02-02T00:18:34;5.00;85.20
45233;DHT22;30969;51.052;17.056;2023-02-02T00:23:38;5.10;85.20
45233;DHT22;30969;51.052;17.056;2023-02-02T00:28:43;5.00;84.90
45233;DHT22;30969;51.052;17.056;2023-02-02T00:33:47;5.00;84.80
45233;DHT22;30969;51.052;17.056;2023-02-02T00:38:51;5.10;84.70
45233;DHT22;30969;51.052;17.056;2023-02-02T00:43:56;5.10;84.80
45233;DHT22;30969;51.052;17.056;2023-02-02T00:49:18;5.10;84.40
45233;DHT22;30969;51.052;17.056;2023-02-02T00:54:25;5.10;84.10
45233;DHT22;30969;51.052;17.056;2023-02-02T00:59:30;5.10;84.00
45233;DHT22;30969;51.052;17.056;2023-02-02T01:04:33;5.10;83.50
45233;DHT22;30969;51.052;17.056;2023-02-02T01:09:37;5.20;83.20
45233;DHT22;30969;51.052;17.056;2023-02-02T01:14:41;5.20;82.50
45233;DHT22;30969;51.052;17.056;2023-02-02T01:19:45;5.10;82.50
45233;DHT22;30969;51.052;17.056;2023-02-02T01:24:49;5.20;82.20
45233;DHT22;30969;51.052;17.056;2023-02-02T01:29:54;5.20;81.70
45233;DHT22;30969;51.052;17.056;2023-02-02T01:34:57;5.30;81.70
45233;DHT22;30969;51.052;17.056;2023-02-02T01:40:00;5.20;81.40
45233;DHT22;30969;51.052;17.056;2023-02-02T01:45:21;5.30;81.00
45233;DHT22;30969;51.052;17.056;2023-02-02T01:50:29;5.40;80.50
45233;DHT22;30969;51.052;17.056;2023-02-02T01:55:35;5.30;80.20
45233;DHT22;30969;51.052;17.056;2023-02-02T02:00:41;5.40;80.00
45233;DHT22;30969;51.052;17.056;2023-02-02T02:05:51;5.40;79.70
45233;DHT22;30969;51.052;17.056;2023-02-02T02:10:56;5.40;79.30
45233;DHT22;30969;51.052;17.056;2023-02-02T02:16:08;5.40;79.00
45233;DHT22;30969;51.052;17.056;2023-02-02T02:21:28;5.40;79.20
45233;DHT22;30969;51.052;17.056;2023-02-02T02:27:05;5.50;78.80
45233;DHT22;30969;51.052;17.056;2023-02-02T02:32:40;5.40;78.70
45233;DHT22;30969;51.052;17.056;2023-02-02T02:37:46;5.50;78.90
45233;DHT22;30969;51.052;17.056;2023-02-02T02:42:54;5.60;78.80
45233;DHT22;30969;51.052;17.056;2023-02-02T02:48:01;5.50;77.80
45233;DHT22;30969;51.052;17.056;2023-02-02T02:53:07;5.50;78.00
45233;DHT22;30969;51.052;17.056;2023-02-02T02:58:14;5.50;78.10
45233;DHT22;30969;51.052;17.056;2023-02-02T03:03:30;5.50;78.30
45233;DHT22;30969;51.052;17.056;2023-02-02T03:08:38;5.60;77.90
45233;DHT22;30969;51.052;17.056;2023-02-02T03:13:43;5.60;77.50
45233;DHT22;30969;51.052;17.056;2023-02-02T03:18:48;5.60;77.10
45233;DHT22;30969;51.052;17.056;2023-02-02T03:23:52;5.60;77.30
45233;DHT22;30969;51.052;17.056;2023-02-02T03:28:56;5.50;76.80
45233;DHT22;30969;51.052;17.056;2023-02-02T03:34:01;5.50;76.60
45233;DHT22;30969;51.052;17.056;2023-02-02T03:39:04;5.50;76.30
45233;DHT22;30969;51.052;17.056;2023-02-02T03:44:10;5.50;75.90
45233;DHT22;30969;51.052;17.056;2023-02-02T03:49:15;5.60;75.90
45233;DHT22;30969;51.052;17.056;2023-02-02T03:54:18;5.60;75.70
45233;DHT22;30969;51.052;17.056;2023-02-02T03:59:22;5.60;75.30
45233;DHT22;30969;51.052;17.056;2023-02-02T04:04:29;5.60;75.10
45233;DHT22;30969;51.052;17.056;2023-02-02T04:09:33;5.60;75.20
45233;DHT22;30969;51.052;17.056;2023-02-02T04:14:36;5.50;75.30
45233;DHT22;30969;51.052;17.056;2023-02-02T04:19:41;5.50;75.30
45233;DHT22;30969;51.052;17.056;2023-02-02T04:24:44;5.50;75.30
45233;DHT22;30969;51.052;17.056;2023-02-02T04:29:48;5.50;75.00
45233;DHT22;30969;51.052;17.056;2023-02-02T04:34:53;5.60;74.90
45233;DHT22;30969;51.052;17.056;2023-02-02T04:39:56;5.70;74.60
45233;DHT22;30969;51.052;17.056;2023-02-02T04:45:00;5.70;74.30
45233;DHT22;30969;51.052;17.056;2023-02-02T04:50:07;5.70;74.20
45233;DHT22;30969;51.052;17.056;2023-02-02T04:55:10;5.80;73.80
45233;DHT22;30969;51.052;17.056;2023-02-02T05:00:14;5.80;73.60
45233;DHT22;30969;51.052;17.056;2023-02-02T05:05:19;5.90;73.70
45233;DHT22;30969;51.052;17.056;2023-02-02T05:10:23;5.90;73.50
45233;DHT22;30969;51.052;17.056;2023-02-02T05:15:27;5.90;73.40
45233;DHT22;30969;51.052;17.056;2023-02-02T05:20:32;5.90;73.40
45233;DHT22;30969;51.052;17.056;2023-02-02T05:25:35;5.90;73.50
45233;DHT22;30969;51.052;17.056;2023-02-02T05:30:39;5.80;73.60
45233;DHT22;30969;51.052;17.056;2023-02-02T05:35:46;5.90;73.70
45233;DHT22;30969;51.052;17.056;2023-02-02T05:40:49;6.00;73.50
45233;DHT22;30969;51.052;17.056;2023-02-02T05:45:53;6.00;73.30
45233;DHT22;30969;51.052;17.056;2023-02-02T05:51:02;6.00;73.20
45233;DHT22;30969;51.052;17.056;2023-02-02T05:56:06;6.10;73.10
45233;DHT22;30969;51.052;17.056;2023-02-02T06:01:10;6.00;73.00
45233;DHT22;30969;51.052;17.056;2023-02-02T06:06:15;6.00;73.40
45233;DHT22;30969;51.052;17.056;2023-02-02T06:11:18;6.00;73.60
45233;DHT22;30969;51.052;17.056;2023-02-02T06:16:22;6.00;73.70
45233;DHT22;30969;51.052;17.056;2023-02-02T06:21:27;6.00;73.90
45233;DHT22;30969;51.052;17.056;2023-02-02T06:26:32;6.10;74.10
45233;DHT22;30969;51.052;17.056;2023-02-02T06:31:36;6.10;74.10
45233;DHT22;30969;51.052;17.056;2023-02-02T06:36:42;6.10;74.40
45233;DHT22;30969;51.052;17.056;2023-02-02T06:41:45;6.20;74.90
45233;DHT22;30969;51.052;17.056;2023-02-02T06:46:49;6.10;75.80
45233;DHT22;30969;51.052;17.056;2023-02-02T06:51:54;6.00;76.80
45233;DHT22;30969;51.052;17.056;2023-02-02T06:56:57;6.00;77.30
45233;DHT22;30969;51.052;17.056;2023-02-02T07:02:01;6.00;77.60
45233;DHT22;30969;51.052;17.056;2023-02-02T07:07:05;5.90;78.30
45233;DHT22;30969;51.052;17.056;2023-02-02T07:12:09;5.80;78.50
45233;DHT22;30969;51.052;17.056;2023-02-02T07:17:13;5.80;78.80
45233;DHT22;30969;51.052;17.056;2023-02-02T07:22:17;5.80;78.70
45233;DHT22;30969;51.052;17.056;2023-02-02T07:27:21;5.70;79.20
45233;DHT22;30969;51.052;17.056;2023-02-02T07:32:24;5.80;79.10
45233;DHT22;30969;51.052;17.056;2023-02-02T07:37:29;5.70;79.70
45233;DHT22;30969;51.052;17.056;2023-02-02T07:42:33;5.80;79.70
45233;DHT22;30969;51.052;17.056;2023-02-02T07:47:36;5.80;79.60
45233;DHT22;30969;51.052;17.056;2023-02-02T07:52:41;5.80;79.50
45233;DHT22;30969;51.052;17.056;2023-02-02T07:57:45;5.70;79.60
45233;DHT22;30969;51.052;17.056;2023-02-02T08:02:48;5.70;80.00
45233;DHT22;30969;51.052;17.056;2023-02-02T08:07:53;5.70;80.50
45233;DHT22;30969;51.052;17.056;2023-02-02T08:12:56;5.60;80.40
45233;DHT22;30969;51.052;17.056;2023-02-02T08:18:00;5.60;80.40
45233;DHT22;30969;51.052;17.056;2023-02-02T08:23:05;5.70;80.50
45233;DHT22;30969;51.052;17.056;2023-02-02T08:28:14;5.70;80.20
45233;DHT22;30969;51.052;17.056;2023-02-02T08:33:18;5.80;79.90
45233;DHT22;30969;51.052;17.056;2023-02-02T08:38:24;5.90;79.80
45233;DHT22;30969;51.052;17.056;2023-02-02T08:43:28;5.90;79.10
45233;DHT22;30969;51.052;17.056;2023-02-02T08:48:32;5.90;79.30
45233;DHT22;30969;51.052;17.056;2023-02-02T08:53:38;5.90;79.70
45233;DHT22;30969;51.052;17.056;2023-02-02T08:58:44;5.80;79.70
45233;DHT22;30969;51.052;17.056;2023-02-02T09:03:48;5.80;79.80
45233;DHT22;30969;51.052;17.056;2023-02-02T09:08:52;5.80;79.40
45233;DHT22;30969;51.052;17.056;2023-02-02T09:13:57;6.00;78.90
45233;DHT22;30969;51.052;17.056;2023-02-02T09:19:03;6.10;77.50
45233;DHT22;30969;51.052;17.056;2023-02-02T09:24:10;6.10;77.30
45233;DHT22;30969;51.052;17.056;2023-02-02T09:29:15;6.10;76.30
45233;DHT22;30969;51.052;17.056;2023-02-02T09:34:19;6.20;76.00
45233;DHT22;30969;51.052;17.056;2023-02-02T09:39:24;6.10;76.30
45233;DHT22;30969;51.052;17.056;2023-02-02T09:44:48;6.10;75.10
45233;DHT22;30969;51.052;17.056;2023-02-02T09:49:59;6.10;75.10
45233;DHT22;30969;51.052;17.056;2023-02-02T09:55:13;6.20;75.10
45233;DHT22;30969;51.052;17.056;2023-02-02T10:00:25;6.20;74.90
45233;DHT22;30969;51.052;17.056;2023-02-02T10:05:40;6.30;74.40
45233;DHT22;30969;51.052;17.056;2023-02-02T10:10:47;6.30;74.00
45233;DHT22;30969;51.052;17.056;2023-02-02T10:15:58;6.30;74.50
45233;DHT22;30969;51.052;17.056;2023-02-02T10:21:09;6.30;75.00
45233;DHT22;30969;51.052;17.056;2023-02-02T10:26:19;6.40;76.80
45233;DHT22;30969;51.052;17.056;2023-02-02T10:31:38;6.30;78.00
45233;DHT22;30969;51.052;17.056;2023-02-02T10:36:55;6.20;79.50
45233;DHT22;30969;51.052;17.056;2023-02-02T10:42:11;6.10;80.20
45233;DHT22;30969;51.052;17.056;2023-02-02T10:47:24;6.00;80.50
45233;DHT22;30969;51.052;17.056;2023-02-02T10:52:31;5.90;81.90
45233;DHT22;30969;51.052;17.056;2023-02-02T10:57:49;5.80;82.50
45233;DHT22;30969;51.052;17.056;2023-02-02T11:02:55;5.80;82.70
45233;DHT22;30969;51.052;17.056;2023-02-02T11:08:00;5.70;82.80
45233;DHT22;30969;51.052;17.056;2023-02-02T11:13:06;5.80;83.70
45233;DHT22;30969;51.052;17.056;2023-02-02T11:18:14;5.80;83.90
45233;DHT22;30969;51.052;17.056;2023-02-02T11:23:28;5.80;83.50
45233;DHT22;30969;51.052;17.056;2023-02-02T11:28:35;5.80;83.40
45233;DHT22;30969;51.052;17.056;2023-02-02T11:33:39;5.70;82.90
45233;DHT22;30969;51.052;17.056;2023-02-02T11:38:43;5.70;82.50
45233;DHT22;30969;51.052;17.056;2023-02-02T11:43:51;5.70;82.40
45233;DHT22;30969;51.052;17.056;2023-02-02T11:48:59;5.70;82.80
45233;DHT22;30969;51.052;17.056;2023-02-02T11:54:05;5.80;83.20
45233;DHT22;30969;51.052;17.056;2023-02-02T11:59:30;6.00;82.90
45233;DHT22;30969;51.052;17.056;2023-02-02T12:04:34;6.10;81.40
45233;DHT22;30969;51.052;17.056;2023-02-02T12:09:37;6.10;81.10
45233;DHT22;30969;51.052;17.056;2023-02-02T12:14:47;6.10;81.60
45233;DHT22;30969;51.052;17.056;2023-02-02T12:20:07;6.10;82.60
45233;DHT22;30969;51.052;17.056;2023-02-02T12:25:36;6.40;82.80
45233;DHT22;30969;51.052;17.056;2023-02-02T12:30:49;6.60;81.20
45233;DHT22;30969;51.052;17.056;2023-02-02T12:36:08;6.60;78.80
45233;DHT22;30969;51.052;17.056;2023-02-02T12:41:23;6.50;78.60
45233;DHT22;30969;51.052;17.056;2023-02-02T12:46:47;6.30;79.20
45233;DHT22;30969;51.052;17.056;2023-02-02T12:52:08;6.10;79.90
45233;DHT22;30969;51.052;17.056;2023-02-02T12:57:19;6.00;81.40
45233;DHT22;30969;51.052;17.056;2023-02-02T13:02:32;5.70;81.50
45233;DHT22;30969;51.052;17.056;2023-02-02T13:07:39;5.70;82.40
45233;DHT22;30969;51.052;17.056;2023-02-02T13:12:49;5.60;83.30
45233;DHT22;30969;51.052;17.056;2023-02-02T13:17:58;5.50;83.80
45233;DHT22;30969;51.052;17.056;2023-02-02T13:23:08;5.50;84.40
45233;DHT22;30969;51.052;17.056;2023-02-02T13:28:21;5.60;83.60
45233;DHT22;30969;51.052;17.056;2023-02-02T13:33:32;5.80;83.10
45233;DHT22;30969;51.052;17.056;2023-02-02T13:38:37;5.80;82.20
45233;DHT22;30969;51.052;17.056;2023-02-02T13:43:50;5.90;81.60
45233;DHT22;30969;51.052;17.056;2023-02-02T13:49:02;5.90;81.20
45233;DHT22;30969;51.052;17.056;2023-02-02T13:59:53;5.90;80.30
45233;DHT22;30969;51.052;17.056;2023-02-02T14:05:05;6.00;80.00
45233;DHT22;30969;51.052;17.056;2023-02-02T14:10:22;5.90;78.60
45233;DHT22;30969;51.052;17.056;2023-02-02T14:15:36;5.80;78.00
45233;DHT22;30969;51.052;17.056;2023-02-02T14:20:44;5.80;77.70
45233;DHT22;30969;51.052;17.056;2023-02-02T14:26:04;5.80;77.40
45233;DHT22;30969;51.052;17.056;2023-02-02T14:31:40;5.80;77.80
45233;DHT22;30969;51.052;17.056;2023-02-02T14:37:08;5.80;77.10
45233;DHT22;30969;51.052;17.056;2023-02-02T14:42:24;5.80;77.00
45233;DHT22;30969;51.052;17.056;2023-02-02T14:47:51;5.80;76.90
45233;DHT22;30969;51.052;17.056;2023-02-02T14:53:03;5.80;76.10
45233;DHT22;30969;51.052;17.056;2023-02-02T14:58:08;5.70;76.40
45233;DHT22;30969;51.052;17.056;2023-02-02T15:03:34;5.70;75.50
45233;DHT22;30969;51.052;17.056;2023-02-02T15:08:39;5.60;76.20
45233;DHT22;30969;51.052;17.056;2023-02-02T15:13:45;5.60;76.00
45233;DHT22;30969;51.052;17.056;2023-02-02T15:18:58;5.60;76.50
45233;DHT22;30969;51.052;17.056;2023-02-02T15:24:05;5.70;76.70
45233;DHT22;30969;51.052;17.056;2023-02-02T15:29:23;5.70;76.70
45233;DHT22;30969;51.052;17.056;2023-02-02T15:34:37;5.70;77.00
45233;DHT22;30969;51.052;17.056;2023-02-02T15:39:45;5.60;74.30
45233;DHT22;30969;51.052;17.056;2023-02-02T15:44:50;5.50;74.40
45233;DHT22;30969;51.052;17.056;2023-02-02T15:49:54;5.40;73.70
45233;DHT22;30969;51.052;17.056;2023-02-02T15:55:00;5.40;72.90
45233;DHT22;30969;51.052;17.056;2023-02-02T16:00:23;5.30;72.60
45233;DHT22;30969;51.052;17.056;2023-02-02T16:05:43;5.20;73.00
45233;DHT22;30969;51.052;17.056;2023-02-02T16:10:49;5.10;72.00
45233;DHT22;30969;51.052;17.056;2023-02-02T16:15:57;5.00;71.80
45233;DHT22;30969;51.052;17.056;2023-02-02T16:21:04;4.90;71.30
45233;DHT22;30969;51.052;17.056;2023-02-02T16:26:13;4.80;70.30
45233;DHT22;30969;51.052;17.056;2023-02-02T16:31:17;4.70;69.90
45233;DHT22;30969;51.052;17.056;2023-02-02T16:36:23;4.70;70.60
45233;DHT22;30969;51.052;17.056;2023-02-02T16:41:30;4.70;70.40
45233;DHT22;30969;51.052;17.056;2023-02-02T16:46:41;4.60;70.30
45233;DHT22;30969;51.052;17.056;2023-02-02T16:51:46;4.50;70.00
45233;DHT22;30969;51.052;17.056;2023-02-02T16:56:59;4.40;69.20
45233;DHT22;30969;51.052;17.056;2023-02-02T17:02:17;4.40;69.60
45233;DHT22;30969;51.052;17.056;2023-02-02T17:07:22;4.40;69.80
45233;DHT22;30969;51.052;17.056;2023-02-02T17:12:29;4.40;69.00
45233;DHT22;30969;51.052;17.056;2023-02-02T17:17:36;4.30;68.10
45233;DHT22;30969;51.052;17.056;2023-02-02T17:22:42;4.20;66.90
45233;DHT22;30969;51.052;17.056;2023-02-02T17:27:47;4.10;65.50
45233;DHT22;30969;51.052;17.056;2023-02-02T17:32:51;4.00;64.50
45233;DHT22;30969;51.052;17.056;2023-02-02T17:37:55;4.00;64.70
45233;DHT22;30969;51.052;17.056;2023-02-02T17:43:01;3.90;64.20
45233;DHT22;30969;51.052;17.056;2023-02-02T17:48:05;3.80;63.20
45233;DHT22;30969;51.052;17.056;2023-02-02T17:53:10;3.80;62.80
45233;DHT22;30969;51.052;17.056;2023-02-02T17:58:16;3.70;63.80
45233;DHT22;30969;51.052;17.056;2023-02-02T18:03:23;3.70;64.50
45233;DHT22;30969;51.052;17.056;2023-02-02T18:08:29;3.70;64.10
45233;DHT22;30969;51.052;17.056;2023-02-02T18:13:34;3.80;64.70
45233;DHT22;30969;51.052;17.056;2023-02-02T18:18:38;3.80;64.90
45233;DHT22;30969;51.052;17.056;2023-02-02T18:23:41;3.90;64.80
45233;DHT22;30969;51.052;17.056;2023-02-02T18:28:47;4.00;64.90
45233;DHT22;30969;51.052;17.056;2023-02-02T18:33:51;4.00;64.50
45233;DHT22;30969;51.052;17.056;2023-02-02T18:38:55;4.00;64.50
45233;DHT22;30969;51.052;17.056;2023-02-02T18:44:01;4.00;64.00
45233;DHT22;30969;51.052;17.056;2023-02-02T18:49:05;4.00;64.00
45233;DHT22;30969;51.052;17.056;2023-02-02T18:54:10;4.10;63.60
45233;DHT22;30969;51.052;17.056;2023-02-02T18:59:15;4.10;63.30
45233;DHT22;30969;51.052;17.056;2023-02-02T19:04:19;4.00;62.20
45233;DHT22;30969;51.052;17.056;2023-02-02T19:09:23;4.00;61.30
45233;DHT22;30969;51.052;17.056;2023-02-02T19:14:31;4.00;61.40
45233;DHT22;30969;51.052;17.056;2023-02-02T19:19:39;4.00;61.60
45233;DHT22;30969;51.052;17.056;2023-02-02T19:24:44;4.10;62.20
45233;DHT22;30969;51.052;17.056;2023-02-02T19:29:50;4.00;61.90
45233;DHT22;30969;51.052;17.056;2023-02-02T19:34:58;3.90;61.50
45233;DHT22;30969;51.052;17.056;2023-02-02T19:40:15;3.90;61.70
45233;DHT22;30969;51.052;17.056;2023-02-02T19:45:23;3.90;62.20
45233;DHT22;30969;51.052;17.056;2023-02-02T19:50:35;3.90;62.60
45233;DHT22;30969;51.052;17.056;2023-02-02T19:55:41;4.00;63.10
45233;DHT22;30969;51.052;17.056;2023-02-02T20:00:48;4.00;63.20
45233;DHT22;30969;51.052;17.056;2023-02-02T20:05:55;3.90;63.30
45233;DHT22;30969;51.052;17.056;2023-02-02T20:11:00;4.00;63.60
45233;DHT22;30969;51.052;17.056;2023-02-02T20:16:10;3.90;64.00
45233;DHT22;30969;51.052;17.056;2023-02-02T20:21:23;3.80;64.90
45233;DHT22;30969;51.052;17.056;2023-02-02T20:26:34;3.80;65.40
45233;DHT22;30969;51.052;17.056;2023-02-02T20:31:41;3.80;65.80
45233;DHT22;30969;51.052;17.056;2023-02-02T20:36:44;3.80;66.10
45233;DHT22;30969;51.052;17.056;2023-02-02T20:41:48;3.80;66.40
45233;DHT22;30969;51.052;17.056;2023-02-02T20:46:54;3.80;66.50
45233;DHT22;30969;51.052;17.056;2023-02-02T20:52:00;3.80;66.90
45233;DHT22;30969;51.052;17.056;2023-02-02T20:57:05;3.70;67.50
45233;DHT22;30969;51.052;17.056;2023-02-02T21:02:12;3.70;67.50
45233;DHT22;30969;51.052;17.056;2023-02-02T21:07:20;3.70;67.50
45233;DHT22;30969;51.052;17.056;2023-02-02T21:12:25;3.70;67.50
45233;DHT22;30969;51.052;17.056;2023-02-02T21:17:30;3.60;67.50
45233;DHT22;30969;51.052;17.056;2023-02-02T21:22:33;3.60;67.90
45233;DHT22;30969;51.052;17.056;2023-02-02T21:27:38;3.50;67.90
45233;DHT22;30969;51.052;17.056;2023-02-02T21:32:43;3.40;68.10
45233;DHT22;30969;51.052;17.056;2023-02-02T21:37:49;3.40;68.20
45233;DHT22;30969;51.052;17.056;2023-02-02T21:42:58;3.30;68.40
45233;DHT22;30969;51.052;17.056;2023-02-02T21:48:05;3.10;68.80
45233;DHT22;30969;51.052;17.056;2023-02-02T21:53:18;3.00;69.30
45233;DHT22;30969;51.052;17.056;2023-02-02T21:58:23;2.90;69.70
45233;DHT22;30969;51.052;17.056;2023-02-02T22:03:31;2.80;70.20
45233;DHT22;30969;51.052;17.056;2023-02-02T22:08:36;2.70;70.70
45233;DHT22;30969;51.052;17.056;2023-02-02T22:13:39;2.70;71.10
45233;DHT22;30969;51.052;17.056;2023-02-02T22:18:44;2.60;71.30
45233;DHT22;30969;51.052;17.056;2023-02-02T22:23:47;2.60;71.60
45233;DHT22;30969;51.052;17.056;2023-02-02T22:28:51;2.60;71.50
45233;DHT22;30969;51.052;17.056;2023-02-02T22:33:58;2.70;71.00
45233;DHT22;30969;51.052;17.056;2023-02-02T22:39:01;2.80;70.70
45233;DHT22;30969;51.052;17.056;2023-02-02T22:44:05;2.70;70.90
45233;DHT22;30969;51.052;17.056;2023-02-02T22:49:10;2.70;71.20
45233;DHT22;30969;51.052;17.056;2023-02-02T22:54:13;2.60;71.30
45233;DHT22;30969;51.052;17.056;2023-02-02T22:59:17;2.60;71.50
45233;DHT22;30969;51.052;17.056;2023-02-02T23:04:22;2.60;71.60
45233;DHT22;30969;51.052;17.056;2023-02-02T23:09:26;2.50;71.80
45233;DHT22;30969;51.052;17.056;2023-02-02T23:14:29;2.40;72.40
45233;DHT22;30969;51.052;17.056;2023-02-02T23:19:36;2.40;72.40
45233;DHT22;30969;51.052;17.056;2023-02-02T23:24:40;2.30;72.50
45233;DHT22;30969;51.052;17.056;2023-02-02T23:29:43;2.40;72.50
45233;DHT22;30969;51.052;17.056;2023-02-02T23:34:48;2.40;72.50
45233;DHT22;30969;51.052;17.056;2023-02-02T23:39:52;2.40;72.50
45233;DHT22;30969;51.052;17.056;2023-02-02T23:44:55;2.50;72.60
45233;DHT22;30969;51.052;17.056;2023-02-02T23:50:01;2.50;72.70
45233;DHT22;30969;51.052;17.056;2023-02-02T23:55:06;2.50;72.40
